createdAt,value
2022-09-14T00:01:55.748Z,17.50
2022-09-14T00:04:42.678Z,17.50
2022-09-14T00:07:29.557Z,17.60
2022-09-14T00:10:16.293Z,17.80
2022-09-14T00:13:02.919Z,17.70
2022-09-14T00:19:06.437Z,17.80
2022-09-14T00:21:56.101Z,17.80
2022-09-14T00:24:43.156Z,18.00
2022-09-14T00:27:30.386Z,18.20
2022-09-14T00:30:17.544Z,18.30
2022-09-14T00:33:06.021Z,18.60
2022-09-14T00:35:53.121Z,18.60
2022-09-14T00:38:41.011Z,18.70
2022-09-14T00:41:30.176Z,19.10
2022-09-14T00:44:55.011Z,19.20
2022-09-14T00:47:42.213Z,19.30
2022-09-14T00:50:31.570Z,19.30
2022-09-14T00:53:18.696Z,19.50
2022-09-14T00:56:05.466Z,19.70
2022-09-14T00:58:55.107Z,19.80
2022-09-14T01:01:42.807Z,20.00
2022-09-14T01:04:30.356Z,20.20
2022-09-14T01:07:31.602Z,20.20
2022-09-14T01:10:31.103Z,20.20
2022-09-14T01:13:29.301Z,20.30
2022-09-14T01:16:26.242Z,20.20
2022-09-14T01:19:47.761Z,20.20
2022-09-14T01:22:41.678Z,20.20
2022-09-14T01:25:41.176Z,19.90
2022-09-14T01:28:35.607Z,19.80
2022-09-14T01:31:30.329Z,19.60
2022-09-14T01:34:26.117Z,19.50
2022-09-14T01:37:17.709Z,19.40
2022-09-14T01:40:09.171Z,19.40
2022-09-14T01:43:00.208Z,19.40
2022-09-14T01:45:53.648Z,19.30
2022-09-14T01:48:46.367Z,19.20
2022-09-14T01:51:39.627Z,19.20
2022-09-14T01:54:31.983Z,19.10
2022-09-14T01:57:24.831Z,19.00
2022-09-14T02:00:16.969Z,18.90
2022-09-14T02:03:12.293Z,18.80
2022-09-14T02:06:02.877Z,18.70
2022-09-14T02:08:50.256Z,18.70
2022-09-14T02:11:37.365Z,18.50
2022-09-14T02:14:24.863Z,18.50
2022-09-14T02:17:12.227Z,18.40
2022-09-14T02:20:02.871Z,18.30
2022-09-14T02:22:51.557Z,18.20
2022-09-14T02:25:41.099Z,18.10
2022-09-14T02:28:28.075Z,18.10
2022-09-14T02:31:22.628Z,18.10
2022-09-14T02:34:15.341Z,18.10
2022-09-14T02:37:12.311Z,18.00
2022-09-14T02:40:06.888Z,18.00
2022-09-14T02:43:03.213Z,17.90
2022-09-14T02:46:00.279Z,17.90
2022-09-14T02:48:53.550Z,17.90
2022-09-14T02:51:47.996Z,17.80
2022-09-14T02:54:41.274Z,17.80
2022-09-14T02:57:28.308Z,17.90
2022-09-14T03:00:15.946Z,17.80
2022-09-14T03:03:02.633Z,17.70
2022-09-14T03:05:49.396Z,17.70
2022-09-14T03:08:36.450Z,17.70
2022-09-14T03:11:25.019Z,17.70
2022-09-14T03:14:12.070Z,17.70
2022-09-14T03:16:59.255Z,17.60
2022-09-14T03:19:45.936Z,17.40
2022-09-14T03:22:33.926Z,17.30
2022-09-14T03:25:23.009Z,17.20
2022-09-14T03:28:12.382Z,17.10
2022-09-14T03:31:02.215Z,17.20
2022-09-14T03:33:53.160Z,17.10
2022-09-14T03:36:40.036Z,17.10
2022-09-14T03:39:26.898Z,17.10
2022-09-14T03:42:14.306Z,17.20
2022-09-14T03:45:03.005Z,17.20
2022-09-14T03:47:50.680Z,17.10
2022-09-14T03:50:38.695Z,17.10
2022-09-14T03:53:25.740Z,17.20
2022-09-14T03:56:15.316Z,17.20
2022-09-14T03:59:02.202Z,17.10
2022-09-14T04:01:50.861Z,17.00
2022-09-14T04:04:38.052Z,17.10
2022-09-14T04:07:24.789Z,17.10
2022-09-14T04:10:12.076Z,17.10
2022-09-14T04:12:59.952Z,17.10
2022-09-14T04:15:56.559Z,17.00
2022-09-14T04:18:45.467Z,17.00
2022-09-14T04:21:32.733Z,17.00
2022-09-14T04:24:19.790Z,16.90
2022-09-14T04:27:07.165Z,16.90
2022-09-14T04:29:54.189Z,16.80
2022-09-14T04:32:44.106Z,16.80
2022-09-14T04:35:32.831Z,16.80
2022-09-14T04:38:19.711Z,16.80
2022-09-14T04:41:08.034Z,16.80
2022-09-14T04:43:56.909Z,16.70
2022-09-14T04:46:46.811Z,16.60
2022-09-14T04:49:34.139Z,16.60
2022-09-14T04:52:23.816Z,16.60
2022-09-14T04:55:11.497Z,16.60
2022-09-14T04:57:58.581Z,16.60
2022-09-14T05:00:45.412Z,16.60
2022-09-14T05:03:32.515Z,16.60
2022-09-14T05:06:21.811Z,16.70
2022-09-14T05:09:14.956Z,16.60
2022-09-14T05:12:02.060Z,16.50
2022-09-14T05:14:49.159Z,16.40
2022-09-14T05:17:36.140Z,16.30
2022-09-14T05:20:23.007Z,16.20
2022-09-14T05:23:09.780Z,16.20
2022-09-14T05:25:58.526Z,16.10
2022-09-14T05:28:50.660Z,16.10
2022-09-14T05:31:37.935Z,16.10
2022-09-14T05:34:24.983Z,16.10
2022-09-14T05:37:13.459Z,16.10
2022-09-14T05:40:00.487Z,16.10
2022-09-14T05:42:48.868Z,16.10
2022-09-14T05:45:36.218Z,16.20
2022-09-14T05:48:23.539Z,16.20
2022-09-14T05:51:14.273Z,16.30
2022-09-14T05:54:01.422Z,16.30
2022-09-14T05:56:48.596Z,16.40
2022-09-14T05:59:36.919Z,16.40
2022-09-14T06:02:23.746Z,16.50
2022-09-14T06:05:11.064Z,16.60
2022-09-14T06:07:58.583Z,16.60
2022-09-14T06:10:45.616Z,16.70
2022-09-14T06:13:32.601Z,16.70
2022-09-14T06:16:22.442Z,16.80
2022-09-14T06:19:10.157Z,16.90
2022-09-14T06:21:56.754Z,17.00
2022-09-14T06:24:43.392Z,17.10
2022-09-14T06:27:29.930Z,17.20
2022-09-14T06:30:17.435Z,17.20
2022-09-14T06:33:06.684Z,17.30
2022-09-14T06:35:57.990Z,17.30
2022-09-14T06:38:45.346Z,17.40
2022-09-14T06:41:33.044Z,17.50
2022-09-14T06:44:19.806Z,17.50
2022-09-14T06:47:06.892Z,17.60
2022-09-14T06:49:55.121Z,17.50
2022-09-14T06:52:41.761Z,17.60
2022-09-14T06:55:29.963Z,17.90
2022-09-14T06:58:17.466Z,18.20
2022-09-14T07:01:04.954Z,19.10
2022-09-14T07:03:52.491Z,19.80
2022-09-14T07:06:43.487Z,20.50
2022-09-14T07:09:31.845Z,20.60
2022-09-14T07:12:19.227Z,20.70
2022-09-14T07:15:49.654Z,20.90
2022-09-14T07:18:43.875Z,21.10
2022-09-14T07:21:32.191Z,21.30
2022-09-14T07:24:20.843Z,21.70
2022-09-14T07:27:25.337Z,21.70
2022-09-14T07:30:14.744Z,22.00
2022-09-14T07:33:01.436Z,22.40
2022-09-14T07:35:48.168Z,22.80
2022-09-14T07:38:51.636Z,22.50
2022-09-14T07:41:40.336Z,22.60
2022-09-14T07:44:27.225Z,22.80
2022-09-14T07:47:14.143Z,23.10
2022-09-14T07:50:01.151Z,23.00
2022-09-14T07:52:51.723Z,23.40
2022-09-14T07:55:40.506Z,23.10
2022-09-14T07:58:28.983Z,22.60
2022-09-14T08:01:18.049Z,21.90
2022-09-14T08:04:05.730Z,21.60
2022-09-14T08:06:52.976Z,21.30
2022-09-14T08:09:40.261Z,21.40
2022-09-14T08:12:27.111Z,21.40
2022-09-14T08:15:14.971Z,21.50
2022-09-14T08:18:01.901Z,21.50
2022-09-14T08:20:48.582Z,22.10
2022-09-14T08:23:35.460Z,22.20
2022-09-14T08:26:24.074Z,22.40
2022-09-14T08:29:11.512Z,22.80
2022-09-14T08:31:59.889Z,23.40
2022-09-14T08:34:48.521Z,24.20
2022-09-14T08:37:35.421Z,24.80
2022-09-14T08:40:22.997Z,23.80
2022-09-14T08:43:13.093Z,23.60
2022-09-14T08:46:08.162Z,24.00
2022-09-14T08:48:56.818Z,24.40
2022-09-14T08:51:44.289Z,24.20
2022-09-14T08:54:33.163Z,24.30
2022-09-14T08:57:27.173Z,25.20
2022-09-14T09:00:17.041Z,24.80
2022-09-14T09:03:36.535Z,24.20
2022-09-14T09:06:31.690Z,24.30
2022-09-14T09:09:24.729Z,24.30
2022-09-14T09:12:16.689Z,24.30
2022-09-14T09:15:07.702Z,24.00
2022-09-14T09:17:59.765Z,23.20
2022-09-14T09:20:49.541Z,23.00
2022-09-14T09:23:38.029Z,23.00
2022-09-14T09:26:29.446Z,23.00
2022-09-14T09:29:16.404Z,22.70
2022-09-14T09:32:05.728Z,22.50
2022-09-14T09:34:53.485Z,22.20
2022-09-14T09:37:41.677Z,22.10
2022-09-14T09:40:35.324Z,21.90
2022-09-14T09:43:38.938Z,21.60
2022-09-14T09:46:33.016Z,21.20
2022-09-14T09:49:22.645Z,20.70
2022-09-14T09:52:11.732Z,20.50
2022-09-14T09:55:00.241Z,20.20
2022-09-14T09:57:48.396Z,19.90
2022-09-14T10:00:35.099Z,19.50
2022-09-14T10:03:29.373Z,19.30
2022-09-14T10:06:16.340Z,19.20
2022-09-14T10:09:03.036Z,19.20
2022-09-14T10:11:58.988Z,19.10
2022-09-14T10:14:48.952Z,19.10
2022-09-14T10:17:36.107Z,19.10
2022-09-14T10:20:24.752Z,19.20
2022-09-14T10:23:28.014Z,19.40
2022-09-14T10:26:28.063Z,19.70
2022-09-14T10:29:36.654Z,20.00
2022-09-14T10:32:27.223Z,20.10
2022-09-14T10:35:15.460Z,20.00
2022-09-14T10:38:17.228Z,19.90
2022-09-14T10:41:21.981Z,20.10
2022-09-14T10:44:35.595Z,20.10
2022-09-14T10:48:02.528Z,20.30
2022-09-14T10:50:58.290Z,20.80
2022-09-14T10:53:53.928Z,21.60
2022-09-14T10:56:57.846Z,20.70
2022-09-14T11:03:13.991Z,21.10
2022-09-14T11:06:12.360Z,21.70
2022-09-14T11:09:03.796Z,22.30
2022-09-14T11:12:02.066Z,23.00
2022-09-14T11:15:01.814Z,23.70
2022-09-14T11:18:00.577Z,24.00
2022-09-14T11:20:58.545Z,23.80
2022-09-14T11:23:49.886Z,24.00
2022-09-14T11:26:42.474Z,24.40
2022-09-14T11:29:33.534Z,23.70
2022-09-14T11:32:24.902Z,23.60
2022-09-14T11:35:20.223Z,24.40
2022-09-14T11:38:14.001Z,24.30
2022-09-14T11:41:12.817Z,24.20
2022-09-14T11:44:03.176Z,24.40
2022-09-14T11:47:00.078Z,24.50
2022-09-14T11:50:02.724Z,24.60
2022-09-14T11:52:59.473Z,24.40
2022-09-14T11:55:48.106Z,24.30
2022-09-14T11:58:35.193Z,24.20
2022-09-14T12:01:37.005Z,23.90
2022-09-14T12:04:24.195Z,23.90
2022-09-14T12:07:11.280Z,23.60
2022-09-14T12:10:19.276Z,23.40
2022-09-14T12:13:21.385Z,23.20
2022-09-14T12:16:10.320Z,23.10
2022-09-14T12:18:58.064Z,23.10
2022-09-14T12:21:44.843Z,22.60
2022-09-14T12:24:31.862Z,22.30
2022-09-14T12:27:23.536Z,21.70
2022-09-14T12:30:40.506Z,21.30
2022-09-14T12:33:45.246Z,21.20
2022-09-14T12:36:59.138Z,20.90
2022-09-14T12:40:14.317Z,20.80
2022-09-14T12:43:46.999Z,20.70
2022-09-14T12:46:39.551Z,20.40
2022-09-14T12:49:31.808Z,20.20
2022-09-14T12:52:32.285Z,20.20
2022-09-14T12:55:35.211Z,20.10
2022-09-14T12:58:47.917Z,20.30
2022-09-14T13:01:45.178Z,20.30
2022-09-14T13:04:35.172Z,20.20
2022-09-14T13:07:23.938Z,20.10
2022-09-14T13:10:20.826Z,20.20
2022-09-14T13:13:23.041Z,20.20
2022-09-14T13:16:14.919Z,20.30
2022-09-14T13:19:10.084Z,20.40
2022-09-14T13:22:00.952Z,20.30
2022-09-14T13:24:49.498Z,20.10
2022-09-14T13:27:38.860Z,19.80
2022-09-14T13:30:27.195Z,19.60
2022-09-14T13:33:18.257Z,19.10
2022-09-14T13:36:06.855Z,18.90
2022-09-14T13:39:26.866Z,18.80
2022-09-14T13:42:13.733Z,18.60
2022-09-14T13:45:00.563Z,18.30
2022-09-14T13:47:47.329Z,18.20
2022-09-14T13:50:35.321Z,17.90
2022-09-14T13:53:41.489Z,17.90
2022-09-14T13:56:31.973Z,18.10
2022-09-14T13:59:21.747Z,18.30
2022-09-14T14:02:14.508Z,18.70
2022-09-14T14:05:01.539Z,19.10
2022-09-14T14:07:48.227Z,19.50
2022-09-14T14:10:40.704Z,19.60
2022-09-14T14:13:28.239Z,19.60
2022-09-14T14:16:18.442Z,19.70
2022-09-14T14:19:05.561Z,19.70
2022-09-14T14:21:54.415Z,19.70
2022-09-14T14:25:09.075Z,19.80
2022-09-14T14:27:50.221Z,19.60
2022-09-14T14:30:41.360Z,19.40
2022-09-14T14:33:28.478Z,19.40
2022-09-14T14:36:15.616Z,19.50
2022-09-14T14:39:02.391Z,19.50
2022-09-14T14:41:50.786Z,19.50
2022-09-14T14:44:39.305Z,19.30
2022-09-14T14:47:27.640Z,19.20
2022-09-14T14:50:19.175Z,19.00
2022-09-14T14:53:06.685Z,18.90
2022-09-14T14:55:53.817Z,18.90
2022-09-14T14:58:45.608Z,18.60
2022-09-14T15:01:34.075Z,18.80
2022-09-14T15:04:21.746Z,19.00
2022-09-14T15:07:09.456Z,19.10
2022-09-14T15:09:58.718Z,19.20
2022-09-14T15:12:46.387Z,19.20
2022-09-14T15:15:33.456Z,19.30
2022-09-14T15:18:21.489Z,19.30
2022-09-14T15:21:09.355Z,19.30
2022-09-14T15:23:56.411Z,19.20
2022-09-14T15:26:43.347Z,19.30
2022-09-14T15:29:30.135Z,19.40
2022-09-14T15:32:16.894Z,19.40
2022-09-14T15:35:05.611Z,19.40
2022-09-14T15:37:52.426Z,19.50
2022-09-14T15:40:39.140Z,19.40
2022-09-14T15:43:25.892Z,19.30
2022-09-14T15:46:12.922Z,19.20
2022-09-14T15:49:00.168Z,19.20
2022-09-14T15:51:50.437Z,19.00
2022-09-14T15:54:39.015Z,19.10
2022-09-14T15:57:25.763Z,19.00
2022-09-14T16:00:14.747Z,19.10
2022-09-14T16:03:01.907Z,19.20
2022-09-14T16:05:48.937Z,19.10
2022-09-14T16:08:38.020Z,19.20
2022-09-14T16:11:25.589Z,19.10
2022-09-14T16:14:12.902Z,19.10
2022-09-14T16:17:00.960Z,18.90
2022-09-14T16:19:49.366Z,18.80
2022-09-14T16:22:36.146Z,18.80
2022-09-14T16:25:24.132Z,18.50
2022-09-14T16:28:10.938Z,18.60
2022-09-14T16:31:06.172Z,18.50
2022-09-14T16:33:55.384Z,18.50
2022-09-14T16:36:42.633Z,18.40
2022-09-14T16:39:31.627Z,18.20
2022-09-14T16:42:20.126Z,18.20
2022-09-14T16:45:08.505Z,18.20
2022-09-14T16:47:55.325Z,18.10
2022-09-14T16:50:42.161Z,18.00
2022-09-14T16:53:28.971Z,17.90
2022-09-14T16:56:17.903Z,17.90
2022-09-14T16:59:07.478Z,17.80
2022-09-14T17:01:55.608Z,17.70
2022-09-14T17:04:42.606Z,17.60
2022-09-14T17:07:29.410Z,17.50
2022-09-14T17:10:16.091Z,17.50
2022-09-14T17:13:03.305Z,17.40
2022-09-14T17:15:51.828Z,17.30
2022-09-14T17:18:41.071Z,17.20
2022-09-14T17:21:29.802Z,17.00
2022-09-14T17:24:18.391Z,17.00
2022-09-14T17:27:05.563Z,16.90
2022-09-14T17:29:53.143Z,16.90
2022-09-14T17:32:41.872Z,16.90
2022-09-14T17:35:28.738Z,16.80
2022-09-14T17:38:15.734Z,16.80
2022-09-14T17:41:04.936Z,16.80
2022-09-14T17:43:52.916Z,16.90
2022-09-14T17:46:49.541Z,16.80
2022-09-14T17:49:40.383Z,16.80
2022-09-14T17:52:29.066Z,16.70
2022-09-14T17:55:16.200Z,16.60
2022-09-14T17:58:03.480Z,16.50
2022-09-14T18:00:50.786Z,16.50
2022-09-14T18:03:38.806Z,16.50
2022-09-14T18:06:29.356Z,16.50
2022-09-14T18:09:19.545Z,16.50
2022-09-14T18:12:07.612Z,16.40
2022-09-14T18:14:54.598Z,16.40
2022-09-14T18:17:42.136Z,16.40
2022-09-14T18:20:29.120Z,16.30
2022-09-14T18:23:18.232Z,16.30
2022-09-14T18:26:09.134Z,16.20
2022-09-14T18:28:58.638Z,16.30
2022-09-14T18:31:46.006Z,16.20
2022-09-14T18:34:33.414Z,16.20
2022-09-14T18:37:21.016Z,16.10
2022-09-14T18:40:10.826Z,16.00
2022-09-14T18:42:57.866Z,16.10
2022-09-14T18:45:44.690Z,16.30
2022-09-14T18:48:31.463Z,16.40
2022-09-14T18:51:18.006Z,16.70
2022-09-14T18:54:07.518Z,17.00
2022-09-14T18:56:57.071Z,17.20
2022-09-14T18:59:44.190Z,17.30
2022-09-14T19:02:30.982Z,17.30
2022-09-14T19:05:18.212Z,17.30
2022-09-14T19:08:05.351Z,17.30
2022-09-14T19:10:52.854Z,17.40
2022-09-14T19:13:41.686Z,17.40
2022-09-14T19:16:30.644Z,17.30
2022-09-14T19:19:18.053Z,17.30
2022-09-14T19:22:04.917Z,17.40
2022-09-14T19:24:51.830Z,17.30
2022-09-14T19:27:39.415Z,17.30
2022-09-14T19:30:30.123Z,17.30
2022-09-14T19:33:18.931Z,17.30
2022-09-14T19:36:09.637Z,17.30
2022-09-14T19:39:01.691Z,17.30
2022-09-14T19:41:48.925Z,17.20
2022-09-14T19:44:35.897Z,17.20
2022-09-14T19:47:24.266Z,17.20
2022-09-14T19:50:12.299Z,17.20
2022-09-14T19:53:02.549Z,17.10
2022-09-14T19:55:51.694Z,17.10
2022-09-14T19:58:40.403Z,17.00
2022-09-14T20:01:29.198Z,17.00
2022-09-14T20:04:18.417Z,17.00
2022-09-14T20:07:07.598Z,16.80
2022-09-14T20:09:55.100Z,16.70
2022-09-14T20:12:42.222Z,16.80
2022-09-14T20:15:30.420Z,16.80
2022-09-14T20:18:17.385Z,16.80
2022-09-14T20:21:09.091Z,16.80
2022-09-14T20:24:15.178Z,16.80
2022-09-14T20:27:03.887Z,16.80
2022-09-14T20:29:50.401Z,16.80
2022-09-14T20:32:37.561Z,16.80
2022-09-14T20:35:24.936Z,16.70
2022-09-14T20:38:13.147Z,16.60
2022-09-14T20:41:00.576Z,16.60
2022-09-14T20:43:49.019Z,16.70
2022-09-14T20:46:39.600Z,16.60
2022-09-14T20:49:26.842Z,16.60
2022-09-14T20:52:13.897Z,16.60
2022-09-14T20:55:02.471Z,16.60
2022-09-14T20:57:49.435Z,16.50
2022-09-14T21:00:36.396Z,16.50
2022-09-14T21:03:24.406Z,16.60
2022-09-14T21:06:13.358Z,16.50
2022-09-14T21:09:01.064Z,16.30
2022-09-14T21:11:50.351Z,16.20
2022-09-14T21:14:37.206Z,16.00
2022-09-14T21:17:24.261Z,15.90
2022-09-14T21:20:11.385Z,15.80
2022-09-14T21:22:58.339Z,15.70
2022-09-14T21:25:45.401Z,15.60
2022-09-14T21:28:33.813Z,15.50
2022-09-14T21:31:22.051Z,15.50
2022-09-14T21:34:10.340Z,15.40
2022-09-14T21:36:57.030Z,15.60
2022-09-14T21:39:44.174Z,15.60
2022-09-14T21:42:31.280Z,15.60
2022-09-14T21:45:19.789Z,15.50
2022-09-14T21:48:06.883Z,15.50
2022-09-14T21:51:03.269Z,15.50
2022-09-14T21:53:51.745Z,15.40
2022-09-14T21:56:40.181Z,15.60
2022-09-14T21:59:27.342Z,15.50
2022-09-14T22:02:16.153Z,15.50
2022-09-14T22:05:04.025Z,15.60
2022-09-14T22:07:51.006Z,15.90
2022-09-14T22:10:38.474Z,16.10
2022-09-14T22:13:25.115Z,16.30
2022-09-14T22:16:14.203Z,16.40
2022-09-14T22:19:05.155Z,16.40
2022-09-14T22:21:52.448Z,16.40
2022-09-14T22:24:39.891Z,16.40
2022-09-14T22:27:26.936Z,16.40
2022-09-14T22:30:14.514Z,16.50
2022-09-14T22:33:01.596Z,16.50
2022-09-14T22:35:57.559Z,16.50
2022-09-14T22:38:45.740Z,16.60
2022-09-14T22:41:32.651Z,16.60
2022-09-14T22:44:19.478Z,16.60
2022-09-14T22:47:06.480Z,16.60
2022-09-14T22:49:53.686Z,16.50
2022-09-14T22:52:41.972Z,16.50
2022-09-14T22:55:28.873Z,16.60
2022-09-14T22:58:18.062Z,16.50
2022-09-14T23:01:09.137Z,16.50
2022-09-14T23:03:57.573Z,16.50
2022-09-14T23:06:48.384Z,16.50
2022-09-14T23:09:36.519Z,16.50
2022-09-14T23:12:23.340Z,16.50
2022-09-14T23:15:11.021Z,16.50
2022-09-14T23:17:58.253Z,16.40
2022-09-14T23:20:46.048Z,16.40
2022-09-14T23:23:33.186Z,16.40
2022-09-14T23:26:22.328Z,16.40
2022-09-14T23:29:13.802Z,16.30
2022-09-14T23:32:00.970Z,16.20
2022-09-14T23:34:48.826Z,16.20
2022-09-14T23:37:35.561Z,16.10
2022-09-14T23:40:22.598Z,16.10
2022-09-14T23:43:11.231Z,16.00
2022-09-14T23:45:58.220Z,15.80
2022-09-14T23:48:45.459Z,15.80
2022-09-14T23:51:32.381Z,15.80
2022-09-14T23:54:19.205Z,15.80
2022-09-14T23:57:05.890Z,15.80
2022-09-14T23:59:53.896Z,15.80
